Terminal Aerodrome Forecast
Issued by NWS Goodland, KS

Home | Current Version | Previous Version | Text Only | Print | Product List | Glossary On
Versions: 1 2 3 4 5 6 7 8 9 10 11 12 13 14 15 16 17 18
000
FTUS43 KGLD 311126
TAFGLD
TAF
KGLD 311126Z 3112/0112 18012KT P6SM SKC
     FM311600 14008KT P6SM FEW120 FEW300
     FM312300 18011KT P6SM SCT100 BKN200 PROB30 0102/0104 -TSRA
      BKN100CB
     FM010600 30007KT P6SM FEW002 SCT100=

USA.gov is the U.S. government's official web portal to all federal, state and local government web resources and services.